createdAt,value
2023-05-14T00:01:08.366Z,63.63
2023-05-14T00:06:11.985Z,64.08
2023-05-14T00:11:16.063Z,63.77
2023-05-14T00:16:21.069Z,63.78
2023-05-14T00:21:24.693Z,63.77
2023-05-14T00:26:28.292Z,63.84
2023-05-14T00:31:33.521Z,64.47
2023-05-14T00:36:37.161Z,64.10
2023-05-14T00:41:41.188Z,63.82
2023-05-14T00:46:46.260Z,64.15
2023-05-14T00:51:50.227Z,64.20
2023-05-14T00:56:54.213Z,63.89
2023-05-14T01:01:59.294Z,64.48
2023-05-14T01:07:12.568Z,63.81
2023-05-14T01:12:22.660Z,63.46
2023-05-14T01:17:33.859Z,63.36
2023-05-14T01:22:39.204Z,63.40
2023-05-14T01:27:51.386Z,61.32
2023-05-14T01:32:57.473Z,62.70
2023-05-14T01:38:32.760Z,62.16
2023-05-14T01:43:37.435Z,62.31
2023-05-14T01:48:41.452Z,63.41
2023-05-14T01:53:46.956Z,64.19
2023-05-14T01:58:50.639Z,64.67
2023-05-14T02:03:54.229Z,64.81
2023-05-14T02:09:00.309Z,64.63
2023-05-14T02:14:04.136Z,64.78
2023-05-14T02:19:07.868Z,62.57
2023-05-14T02:24:13.052Z,64.91
2023-05-14T02:29:16.703Z,63.88
2023-05-14T02:34:20.375Z,63.99
2023-05-14T02:39:25.853Z,63.14
2023-05-14T02:44:29.527Z,64.88
2023-05-14T02:49:33.347Z,64.68
2023-05-14T02:54:38.431Z,64.54
2023-05-14T02:59:42.091Z,64.52
2023-05-14T03:04:45.732Z,65.00
2023-05-14T03:09:50.992Z,64.84
2023-05-14T03:14:54.634Z,65.16
2023-05-14T03:19:58.306Z,65.55
2023-05-14T03:25:03.276Z,64.56
2023-05-14T03:30:08.422Z,65.85
2023-05-14T03:35:12.133Z,66.07
2023-05-14T03:40:19.912Z,66.13
2023-05-14T03:45:23.782Z,65.86
2023-05-14T03:50:27.462Z,64.91
2023-05-14T03:55:32.701Z,65.12
2023-05-14T04:00:36.357Z,64.67
2023-05-14T04:05:40.707Z,64.70
2023-05-14T04:10:46.413Z,65.42
2023-05-14T04:15:50.043Z,66.61
2023-05-14T04:20:53.841Z,66.24
2023-05-14T04:25:59.165Z,66.58
2023-05-14T04:31:02.775Z,66.54
2023-05-14T04:36:07.273Z,66.29
2023-05-14T04:41:12.287Z,66.09
2023-05-14T04:46:16.146Z,66.51
2023-05-14T04:51:19.835Z,66.54
2023-05-14T04:56:25.076Z,66.46
2023-05-14T05:01:28.736Z,66.82
2023-05-14T05:06:32.686Z,66.83
2023-05-14T05:11:37.938Z,67.27
2023-05-14T05:16:42.515Z,66.95
2023-05-14T05:21:46.319Z,67.01
2023-05-14T05:26:56.964Z,65.57
2023-05-14T05:32:26.434Z,67.50
2023-05-14T05:37:31.865Z,67.26
2023-05-14T05:42:37.048Z,67.03
2023-05-14T05:47:40.963Z,67.78
2023-05-14T05:52:44.800Z,67.52
2023-05-14T05:57:49.909Z,68.63
2023-05-14T06:02:53.781Z,67.29
2023-05-14T06:07:57.619Z,67.06
2023-05-14T06:13:03.049Z,66.67
2023-05-14T06:18:07.068Z,67.25
2023-05-14T06:23:12.439Z,66.70
2023-05-14T06:28:17.709Z,67.67
2023-05-14T06:33:29.728Z,66.71
2023-05-14T06:38:33.588Z,67.56
2023-05-14T06:43:38.930Z,67.12
2023-05-14T06:48:42.744Z,66.89
2023-05-14T06:53:46.885Z,66.89
2023-05-14T06:58:51.917Z,66.57
2023-05-14T07:03:56.366Z,66.81
2023-05-14T07:09:06.496Z,67.04
2023-05-14T07:14:11.488Z,66.27
2023-05-14T07:19:15.266Z,66.65
2023-05-14T07:24:18.953Z,67.14
2023-05-14T07:29:25.192Z,66.07
2023-05-14T07:34:28.751Z,65.61
2023-05-14T07:39:32.367Z,65.19
2023-05-14T07:44:37.286Z,64.79
2023-05-14T07:49:40.805Z,63.88
2023-05-14T07:54:44.308Z,63.59
2023-05-14T07:59:49.828Z,63.59
2023-05-14T08:04:53.681Z,62.52
2023-05-14T08:09:57.352Z,62.87
2023-05-14T08:15:02.325Z,62.25
2023-05-14T08:20:08.515Z,62.28
2023-05-14T08:25:12.202Z,61.97
2023-05-14T08:30:18.095Z,62.25
2023-05-14T08:35:21.673Z,60.83
2023-05-14T08:40:25.564Z,62.69
2023-05-14T08:45:33.969Z,59.98
2023-05-14T08:50:37.945Z,60.18
2023-05-14T08:55:41.737Z,60.34
2023-05-14T09:00:46.605Z,60.46
2023-05-14T09:05:52.643Z,59.54
2023-05-14T09:10:56.181Z,58.85
2023-05-14T09:16:01.949Z,59.19
2023-05-14T09:21:06.214Z,59.41
2023-05-14T09:26:09.846Z,60.18
2023-05-14T09:31:14.791Z,58.41
2023-05-14T09:36:18.838Z,56.63
2023-05-14T09:41:23.077Z,54.58
2023-05-14T09:46:30.249Z,56.20
2023-05-14T09:51:33.926Z,55.63
2023-05-14T09:56:38.344Z,54.97
2023-05-14T10:01:44.794Z,54.48
2023-05-14T10:06:52.279Z,53.74
2023-05-14T10:12:02.146Z,54.57
2023-05-14T10:17:07.823Z,52.35
2023-05-14T10:22:13.815Z,53.83
2023-05-14T10:27:17.842Z,53.42
2023-05-14T10:32:24.436Z,53.29
2023-05-14T10:37:28.387Z,54.53
2023-05-14T10:42:35.948Z,53.13
2023-05-14T10:47:42.939Z,53.90
2023-05-14T10:52:47.195Z,53.89
2023-05-14T10:57:50.823Z,55.39
2023-05-14T11:03:09.920Z,51.76
2023-05-14T11:08:14.771Z,52.11
2023-05-14T11:13:21.089Z,54.07
2023-05-14T11:18:29.835Z,52.91
2023-05-14T11:23:33.618Z,51.08
2023-05-14T11:28:38.722Z,51.95
2023-05-14T11:33:43.811Z,50.97
2023-05-14T11:38:49.519Z,50.27
2023-05-14T11:43:53.255Z,49.62
2023-05-14T11:48:58.105Z,51.04
2023-05-14T11:54:14.472Z,49.30
2023-05-14T11:59:19.633Z,49.39
2023-05-14T12:04:24.948Z,48.13
2023-05-14T12:09:33.367Z,47.32
2023-05-14T12:14:39.752Z,47.23
2023-05-14T12:19:49.383Z,47.52
2023-05-14T12:24:57.651Z,48.35
2023-05-14T12:30:19.353Z,46.60
2023-05-14T12:35:25.453Z,46.78
2023-05-14T12:40:29.202Z,45.92
2023-05-14T12:45:32.884Z,46.62
2023-05-14T12:50:37.976Z,45.72
2023-05-14T12:55:48.786Z,44.65
2023-05-14T13:00:57.005Z,44.19
2023-05-14T13:06:04.662Z,45.36
2023-05-14T13:11:08.597Z,44.67
2023-05-14T13:16:16.849Z,42.56
2023-05-14T13:21:22.264Z,41.61
2023-05-14T13:26:28.277Z,41.86
2023-05-14T13:31:31.956Z,43.38
2023-05-14T13:36:39.696Z,43.14
2023-05-14T13:41:45.513Z,40.11
2023-05-14T13:46:49.319Z,41.48
2023-05-14T13:51:54.487Z,41.48
2023-05-14T13:57:03.993Z,41.75
2023-05-14T14:02:08.449Z,43.10
2023-05-14T14:07:13.409Z,43.01
2023-05-14T14:12:17.384Z,42.36
2023-05-14T14:17:21.117Z,43.12
2023-05-14T14:22:28.173Z,42.61
2023-05-14T14:27:36.098Z,42.28
2023-05-14T14:32:39.938Z,42.08
2023-05-14T14:37:49.263Z,42.09
2023-05-14T14:43:00.860Z,41.96
2023-05-14T14:48:24.425Z,43.75
2023-05-14T14:53:30.891Z,40.66
2023-05-14T14:58:34.580Z,43.34
2023-05-14T15:03:38.421Z,42.34
2023-05-14T15:08:58.851Z,41.29
2023-05-14T15:14:03.305Z,40.73
2023-05-14T15:19:06.937Z,40.69
2023-05-14T15:24:14.308Z,42.47
2023-05-14T15:29:43.823Z,42.09
2023-05-14T15:34:53.490Z,41.59
2023-05-14T15:40:01.210Z,42.39
2023-05-14T15:45:05.491Z,41.02
2023-05-14T15:50:10.336Z,41.35
2023-05-14T15:55:15.325Z,41.81
2023-05-14T16:00:26.006Z,41.82
2023-05-14T16:05:33.627Z,40.75
2023-05-14T16:10:45.808Z,40.91
2023-05-14T16:15:52.880Z,41.44
2023-05-14T16:20:56.544Z,42.20
2023-05-14T16:26:01.514Z,42.80
2023-05-14T16:31:05.226Z,42.63
2023-05-14T16:36:09.028Z,42.58
2023-05-14T16:41:14.109Z,43.59
2023-05-14T16:46:17.929Z,43.42
2023-05-14T16:51:21.520Z,42.89
2023-05-14T16:56:26.579Z,41.34
2023-05-14T17:01:30.314Z,41.44
2023-05-14T17:06:34.090Z,39.32
2023-05-14T17:11:40.201Z,40.26
2023-05-14T17:16:43.777Z,39.75
2023-05-14T17:21:47.230Z,40.02
2023-05-14T17:26:52.147Z,40.13
2023-05-14T17:31:55.861Z,39.65
2023-05-14T17:37:00.873Z,40.09
2023-05-14T17:42:06.951Z,40.58
2023-05-14T17:47:10.668Z,40.21
2023-05-14T17:52:14.341Z,40.49
2023-05-14T17:57:19.429Z,40.26
2023-05-14T18:02:22.929Z,40.15
2023-05-14T18:07:26.689Z,40.64
2023-05-14T18:12:31.843Z,41.53
2023-05-14T18:17:35.851Z,42.04
2023-05-14T18:22:39.489Z,42.04
2023-05-14T18:27:45.585Z,42.62
2023-05-14T18:32:51.928Z,43.00
2023-05-14T18:37:56.072Z,42.81
2023-05-14T18:43:01.224Z,43.78
2023-05-14T18:48:05.747Z,44.26
2023-05-14T18:53:09.635Z,43.96
2023-05-14T18:58:15.447Z,44.41
2023-05-14T19:03:20.154Z,44.38
2023-05-14T19:08:24.068Z,44.21
2023-05-14T19:13:30.463Z,44.89
2023-05-14T19:18:34.503Z,45.07
2023-05-14T19:23:38.613Z,45.83
2023-05-14T19:28:43.867Z,46.83
2023-05-14T19:33:47.705Z,48.01
2023-05-14T19:38:51.554Z,47.90
2023-05-14T19:43:56.713Z,48.18
2023-05-14T19:49:00.546Z,48.65
2023-05-14T19:54:04.746Z,49.09
2023-05-14T19:59:09.911Z,49.19
2023-05-14T20:04:14.127Z,50.40
2023-05-14T20:09:20.346Z,50.52
2023-05-14T20:14:25.688Z,50.69
2023-05-14T20:19:29.796Z,51.40
2023-05-14T20:24:33.953Z,50.67
2023-05-14T20:29:39.617Z,50.74
2023-05-14T20:34:45.580Z,51.20
2023-05-14T20:39:55.562Z,51.50
2023-05-14T20:45:07.799Z,51.22
2023-05-14T20:50:14.974Z,51.99
2023-05-14T20:55:19.288Z,52.14
2023-05-14T21:00:30.572Z,51.76
2023-05-14T21:05:35.269Z,52.56
2023-05-14T21:10:39.819Z,53.00
2023-05-14T21:15:45.813Z,53.58
2023-05-14T21:20:57.426Z,53.87
2023-05-14T21:31:43.384Z,54.09
2023-05-14T21:36:50.084Z,55.04
2023-05-14T21:41:54.894Z,55.43
2023-05-14T21:47:03.165Z,55.29
2023-05-14T21:52:07.362Z,56.29
2023-05-14T21:57:13.051Z,56.28
2023-05-14T22:02:23.560Z,56.74
2023-05-14T22:07:27.748Z,56.46
2023-05-14T22:12:36.112Z,56.04
2023-05-14T22:17:44.292Z,56.85
2023-05-14T22:22:48.591Z,56.71
2023-05-14T22:27:52.673Z,57.33
2023-05-14T22:33:03.360Z,56.89
2023-05-14T22:38:15.892Z,58.40
2023-05-14T22:43:19.891Z,58.30
2023-05-14T22:48:27.277Z,57.98
2023-05-14T22:53:40.950Z,58.50
2023-05-14T22:58:46.864Z,58.67
2023-05-14T23:03:54.351Z,58.19
2023-05-14T23:08:58.291Z,58.22
2023-05-14T23:14:08.309Z,56.36
2023-05-14T23:19:19.073Z,57.18
2023-05-14T23:24:23.325Z,57.61
2023-05-14T23:29:27.157Z,57.75
2023-05-14T23:34:35.956Z,56.64
2023-05-14T23:39:40.581Z,57.04
2023-05-14T23:44:44.369Z,57.28
2023-05-14T23:49:49.539Z,57.43
2023-05-14T23:55:00.529Z,57.34
